Time;durP1;ratioP1;P1;durP2;ratioP2;P2;SDS_P1;SDS_P2;PMS_P1;PMS_P2;Temp;Humidity;BMP_temperature;BMP_pressure;BME280_temperature;BME280_humidity;BME280_pressure;Samples;Min_cycle;Max_cycle;Signal;HPM_P1;HPM_P2
2023/03/15 00:01:14;;;;;;;1.43;1.30;;;;;;;6.18;63.58;95528.34;5029047;28;20435;-69
2023/03/15 00:07:02;;;;;;;6.03;2.00;;;;;;;6.18;64.10;95546.59;5027895;28;20452;-69
2023/03/15 00:09:27;;;;;;;6.60;1.80;;;;;;;6.15;64.07;95551.00;5026720;28;20797;-69
2023/03/15 00:11:53;;;;;;;1.63;1.53;;;;;;;6.11;64.59;95553.78;5028319;28;20819;-70
2023/03/15 00:14:19;;;;;;;2.70;1.57;;;;;;;6.25;63.85;95554.09;5028235;28;20191;-70
2023/03/15 00:16:45;;;;;;;2.40;1.40;;;;;;;6.25;63.91;95558.47;5027999;28;20183;-67
2023/03/15 00:19:11;;;;;;;1.60;1.50;;;;;;;6.29;64.04;95565.25;5027673;28;20406;-70
2023/03/15 00:21:36;;;;;;;2.77;1.50;;;;;;;6.18;64.66;95564.81;5028099;28;20304;-70
2023/03/15 00:24:02;;;;;;;1.57;1.30;;;;;;;6.19;65.25;95567.38;5027964;28;20204;-69
2023/03/15 00:26:28;;;;;;;1.73;1.40;;;;;;;6.13;65.66;95571.06;5027842;28;20187;-69
2023/03/15 00:28:53;;;;;;;2.60;1.50;;;;;;;6.12;65.84;95574.59;5027875;28;20179;-69
2023/03/15 00:31:22;;;;;;;3.80;3.40;;;;;;;6.03;65.79;95581.91;5028282;28;20178;-68
2023/03/15 00:33:48;;;;;;;1.70;1.43;;;;;;;6.17;65.38;95583.97;5031614;28;20680;-67
2023/03/15 00:36:14;;;;;;;2.23;1.30;;;;;;;6.23;62.51;95581.97;5028096;28;20502;-68
2023/03/15 00:38:43;;;;;;;1.27;0.90;;;;;;;6.12;61.77;95591.97;5028515;28;20278;-68
2023/03/15 00:41:11;;;;;;;2.13;0.90;;;;;;;5.94;61.81;95598.75;5028403;28;20437;-68
2023/03/15 00:43:37;;;;;;;1.20;1.03;;;;;;;6.02;61.05;95607.09;5028587;28;20450;-68
2023/03/15 00:46:04;;;;;;;1.97;0.90;;;;;;;5.87;61.19;95613.72;5028184;28;20453;-68
2023/03/15 00:48:30;;;;;;;1.20;1.10;;;;;;;5.80;61.58;95612.25;5028301;28;20179;-69
2023/03/15 00:51:08;;;;;;;3.40;1.20;;;;;;;5.92;61.09;95623.94;5028636;28;20418;-70
2023/03/15 00:53:35;;;;;;;1.07;0.97;;;;;;;5.81;61.49;95639.13;5035625;28;20462;-69
2023/03/15 00:56:10;;;;;;;1.30;1.10;;;;;;;5.69;60.60;95649.09;5035869;28;20420;-69
2023/03/15 00:58:35;;;;;;;1.53;0.97;;;;;;;5.75;61.23;95657.59;5041411;28;20406;-70
2023/03/15 01:01:06;;;;;;;1.37;1.23;;;;;;;5.64;61.34;95671.00;5041981;28;20631;-70
2023/03/15 01:03:31;;;;;;;1.20;1.00;;;;;;;5.77;60.87;95681.81;5044515;28;20374;-70
2023/03/15 01:05:56;;;;;;;2.80;1.63;;;;;;;5.84;60.41;95691.09;5043937;28;20475;-70
2023/03/15 01:08:23;;;;;;;1.93;1.30;;;;;;;5.65;60.34;95690.94;5039044;28;20168;-69
2023/03/15 01:10:48;;;;;;;1.93;1.20;;;;;;;5.53;61.25;95697.41;5027324;28;20184;-69
2023/03/15 01:13:14;;;;;;;1.33;1.23;;;;;;;5.60;61.23;95703.22;5027435;28;20568;-69
2023/03/15 01:15:43;;;;;;;1.67;1.57;;;;;;;5.46;61.83;95712.38;5026725;28;20196;-69
2023/03/15 01:18:09;;;;;;;1.63;1.53;;;;;;;5.39;62.66;95712.66;5026455;28;20176;-69
2023/03/15 01:20:34;;;;;;;2.20;2.00;;;;;;;4.85;62.41;95712.69;5025492;28;20422;-69
2023/03/15 01:23:00;;;;;;;2.00;1.80;;;;;;;5.13;63.46;95716.16;5026690;28;20171;-69
2023/03/15 01:25:25;;;;;;;2.20;1.77;;;;;;;5.05;62.55;95726.78;5026694;28;20191;-69
2023/03/15 01:27:51;;;;;;;3.20;2.20;;;;;;;5.11;62.58;95725.75;5026466;28;20176;-69
2023/03/15 01:30:16;;;;;;;2.13;1.70;;;;;;;5.18;62.52;95729.84;5026577;28;20167;-69
2023/03/15 01:32:42;;;;;;;2.40;1.93;;;;;;;5.19;63.12;95734.13;5026763;28;20227;-70
2023/03/15 01:35:07;;;;;;;1.83;1.67;;;;;;;5.20;62.55;95734.09;5026789;28;20191;-69
2023/03/15 01:37:33;;;;;;;1.70;1.60;;;;;;;5.19;62.53;95745.38;5026424;28;20236;-69
2023/03/15 01:39:59;;;;;;;1.77;1.60;;;;;;;5.06;62.92;95749.31;5026853;28;20181;-70
2023/03/15 01:42:24;;;;;;;1.70;1.60;;;;;;;5.10;62.43;95745.69;5026741;28;20182;-69
2023/03/15 01:44:55;;;;;;;1.80;1.70;;;;;;;5.08;62.57;95769.16;5024891;28;20207;-69
2023/03/15 01:47:24;;;;;;;2.20;1.83;;;;;;;5.05;63.31;95779.63;5026061;28;20226;-68
2023/03/15 01:49:56;;;;;;;1.70;1.43;;;;;;;5.23;63.05;95783.41;5026761;28;20407;-69
2023/03/15 01:52:30;;;;;;;3.00;1.70;;;;;;;4.82;64.16;95800.34;5026099;28;20584;-69
2023/03/15 01:55:02;;;;;;;1.80;1.63;;;;;;;4.94;64.18;95805.16;5026133;28;20425;-69
2023/03/15 01:57:37;;;;;;;1.53;1.43;;;;;;;5.05;63.48;95818.66;5026116;28;20894;-70
2023/03/15 02:00:10;;;;;;;1.60;1.50;;;;;;;5.02;64.17;95825.72;5026425;28;20519;-69
2023/03/15 02:02:45;;;;;;;1.60;1.50;;;;;;;5.01;64.15;95830.06;5026340;28;21040;-69
2023/03/15 02:05:16;;;;;;;1.80;1.60;;;;;;;5.07;63.38;95832.44;5026558;28;20425;-69
2023/03/15 02:07:48;;;;;;;5.00;1.50;;;;;;;5.08;62.00;95841.13;5026214;28;20450;-70
2023/03/15 02:10:19;;;;;;;2.43;1.47;;;;;;;5.09;61.35;95841.06;5026790;28;20422;-68
2023/03/15 02:12:50;;;;;;;3.23;1.63;;;;;;;5.03;61.07;95850.78;5026569;28;20520;-69
2023/03/15 02:15:16;;;;;;;2.17;1.27;;;;;;;4.99;60.89;95842.25;5026113;28;20430;-68
2023/03/15 02:17:45;;;;;;;4.30;1.50;;;;;;;4.90;60.31;95839.94;5025876;28;20503;-69
2023/03/15 02:20:18;;;;;;;2.53;1.27;;;;;;;5.07;60.20;95855.00;5026421;28;20406;-68
2023/03/15 02:22:54;;;;;;;4.40;1.50;;;;;;;5.03;59.82;95861.19;5026228;28;20406;-69
2023/03/15 02:25:31;;;;;;;1.60;1.50;;;;;;;5.14;59.06;95859.13;5026531;28;21247;-69
2023/03/15 02:27:58;;;;;;;1.37;1.27;;;;;;;5.03;60.18;95872.47;5028907;28;20477;-69
2023/03/15 02:30:23;;;;;;;2.90;1.50;;;;;;;5.01;59.95;95876.88;5029154;28;20426;-69
2023/03/15 02:32:49;;;;;;;1.80;1.70;;;;;;;4.91;60.21;95883.22;5029860;28;20457;-69
2023/03/15 02:35:27;;;;;;;3.10;1.70;;;;;;;4.91;61.60;95879.78;5028864;28;20199;-69
2023/03/15 02:37:52;;;;;;;1.50;1.40;;;;;;;4.77;61.43;95886.25;5025775;28;20266;-69
2023/03/15 02:40:20;;;;;;;1.90;1.70;;;;;;;4.82;61.22;95891.31;5030244;28;20497;-69
2023/03/15 02:42:49;;;;;;;1.60;1.50;;;;;;;4.95;61.39;95897.00;5025942;28;20569;-69
2023/03/15 02:45:15;;;;;;;1.70;1.60;;;;;;;4.90;60.42;95899.72;5025445;28;20450;-69
2023/03/15 02:47:43;;;;;;;2.43;1.97;;;;;;;5.07;59.89;95907.03;5025421;28;20653;-70
2023/03/15 02:50:09;;;;;;;2.50;1.90;;;;;;;5.09;60.21;95915.63;5025863;28;20167;-69
2023/03/15 02:52:35;;;;;;;2.20;1.80;;;;;;;5.02;60.63;95909.75;5025686;28;20958;-69
2023/03/15 02:55:01;;;;;;;2.27;1.83;;;;;;;4.88;61.43;95920.56;5025590;28;20438;-69
2023/03/15 02:57:27;;;;;;;2.83;2.10;;;;;;;4.86;61.64;95919.75;5025720;28;20191;-69
2023/03/15 02:59:53;;;;;;;5.13;2.30;;;;;;;4.75;61.70;95927.03;5028203;28;20262;-69
2023/03/15 03:02:20;;;;;;;4.13;2.27;;;;;;;4.99;61.89;95932.41;5029498;28;20406;-69
2023/03/15 03:04:45;;;;;;;5.60;2.00;;;;;;;4.92;61.66;95951.69;5029801;28;20964;-69
2023/03/15 03:07:11;;;;;;;5.67;2.43;;;;;;;5.07;61.97;95956.44;5029597;28;20503;-69
2023/03/15 03:09:36;;;;;;;3.30;2.00;;;;;;;5.20;60.73;95968.19;5029718;28;20656;-69
2023/03/15 03:12:02;;;;;;;2.53;2.33;;;;;;;5.15;61.87;95975.28;5029319;28;20211;-69
2023/03/15 03:14:27;;;;;;;2.10;1.90;;;;;;;5.05;62.75;95979.88;5028987;28;20195;-69
2023/03/15 03:16:53;;;;;;;3.50;2.70;;;;;;;5.13;61.40;95984.03;5028775;28;20176;-69
2023/03/15 03:19:19;;;;;;;3.73;2.73;;;;;;;4.92;61.45;95991.53;5028774;28;20197;-69
2023/03/15 03:21:44;;;;;;;5.17;3.40;;;;;;;4.85;62.86;96000.41;5029008;28;20290;-68
2023/03/15 03:24:10;;;;;;;4.00;3.60;;;;;;;4.97;62.29;95999.22;5029065;28;20195;-68
2023/03/15 03:26:37;;;;;;;17.77;5.23;;;;;;;4.99;61.22;96008.69;5028624;28;20179;-68
2023/03/15 03:29:04;;;;;;;6.57;3.97;;;;;;;4.98;59.84;96011.31;5028989;28;20775;-69
2023/03/15 03:31:32;;;;;;;5.60;4.40;;;;;;;4.99;59.37;96013.03;5028622;28;21202;-68
2023/03/15 03:33:58;;;;;;;6.83;5.37;;;;;;;4.95;60.12;96014.00;5028580;28;20466;-68
2023/03/15 03:36:23;;;;;;;8.20;4.37;;;;;;;4.99;59.88;96026.03;5028497;28;20496;-69
2023/03/15 03:38:50;;;;;;;10.17;4.30;;;;;;;4.91;59.10;96023.63;5027225;28;20183;-68
2023/03/15 03:41:16;;;;;;;6.20;4.07;;;;;;;4.78;58.89;96020.53;5028592;28;20863;-68
2023/03/15 03:43:41;;;;;;;6.47;4.47;;;;;;;4.56;59.77;96019.38;5028469;28;20416;-68
2023/03/15 03:46:07;;;;;;;8.90;5.17;;;;;;;4.79;59.00;96022.22;5027977;28;20270;-68
2023/03/15 03:48:33;;;;;;;7.87;5.03;;;;;;;4.63;59.33;96024.41;5028733;28;20596;-68
2023/03/15 03:50:58;;;;;;;7.90;5.40;;;;;;;4.72;58.72;96023.28;5028565;28;20172;-69
2023/03/15 03:53:24;;;;;;;6.60;4.93;;;;;;;4.78;57.08;96020.53;5028105;28;20207;-69
2023/03/15 03:55:50;;;;;;;6.50;5.17;;;;;;;4.67;58.14;96020.78;5028182;28;20176;-69
2023/03/15 03:58:15;;;;;;;7.33;5.13;;;;;;;4.40;57.97;96032.78;5028282;28;20184;-69
2023/03/15 04:00:41;;;;;;;6.37;4.70;;;;;;;4.27;58.91;96028.78;5028454;28;20259;-69
2023/03/15 04:03:07;;;;;;;7.83;5.73;;;;;;;4.58;58.97;96034.06;5028505;28;20617;-69
2023/03/15 04:05:33;;;;;;;6.73;4.80;;;;;;;4.61;58.81;96033.97;5028170;28;20538;-68
2023/03/15 04:07:58;;;;;;;8.57;5.00;;;;;;;4.60;58.04;96044.41;5027799;28;20425;-68
2023/03/15 04:10:25;;;;;;;7.50;4.63;;;;;;;4.89;57.58;96048.84;5027803;28;20274;-68
2023/03/15 04:12:55;;;;;;;12.60;5.77;;;;;;;5.08;56.44;96057.84;5028106;28;20208;-68
2023/03/15 04:15:22;;;;;;;5.90;5.33;;;;;;;5.03;56.90;96061.44;5027973;28;20434;-68
2023/03/15 04:17:49;;;;;;;7.30;5.23;;;;;;;5.18;57.05;96066.22;5027709;28;20847;-69
2023/03/15 04:20:16;;;;;;;8.43;4.90;;;;;;;5.23;56.46;96071.31;5028014;28;20418;-68
2023/03/15 04:22:48;;;;;;;10.13;6.17;;;;;;;5.13;56.34;96082.88;5027616;28;20484;-69
2023/03/15 04:25:15;;;;;;;9.67;5.57;;;;;;;5.12;57.02;96076.78;5027930;28;20453;-69
2023/03/15 04:27:40;;;;;;;5.93;4.60;;;;;;;5.08;56.79;96083.84;5026430;28;20437;-69
2023/03/15 04:30:07;;;;;;;10.57;4.63;;;;;;;5.04;56.08;96086.56;5027687;28;20411;-69
2023/03/15 04:32:32;;;;;;;8.10;4.47;;;;;;;5.00;56.72;96082.34;5027511;28;20214;-69
2023/03/15 04:34:57;;;;;;;5.47;3.50;;;;;;;4.99;56.63;96085.84;5027631;28;20768;-69
2023/03/15 04:37:23;;;;;;;7.13;3.50;;;;;;;5.00;57.11;96097.94;5027416;28;20176;-68
2023/03/15 04:39:48;;;;;;;6.00;3.20;;;;;;;5.04;55.41;96099.56;5027533;28;20183;-68
2023/03/15 04:42:14;;;;;;;11.57;3.43;;;;;;;4.99;56.00;96093.66;5027552;28;20262;-68
2023/03/15 04:44:39;;;;;;;6.70;3.67;;;;;;;5.00;56.03;96103.13;5027332;28;20203;-68
2023/03/15 04:47:05;;;;;;;4.67;2.57;;;;;;;4.90;56.20;96105.13;5027356;28;20172;-68
2023/03/15 04:49:30;;;;;;;8.10;3.77;;;;;;;4.88;55.97;96112.13;5027551;28;20176;-67
2023/03/15 04:51:56;;;;;;;6.67;3.30;;;;;;;4.83;56.48;96109.63;5027176;28;20779;-68
2023/03/15 04:54:22;;;;;;;6.93;3.63;;;;;;;4.90;56.06;96117.28;5027241;28;20210;-68
2023/03/15 04:56:47;;;;;;;3.70;2.63;;;;;;;4.91;55.41;96114.63;5027782;28;20186;-68
2023/03/15 04:59:13;;;;;;;8.63;3.30;;;;;;;5.00;54.90;96113.53;5027270;28;20513;-69
2023/03/15 05:01:38;;;;;;;8.53;3.60;;;;;;;5.16;54.37;96122.63;5027157;28;20182;-69
2023/03/15 05:04:04;;;;;;;15.70;3.70;;;;;;;5.09;54.94;96128.91;5027068;28;20219;-68
2023/03/15 05:06:29;;;;;;;11.60;4.33;;;;;;;4.91;55.90;96135.44;5026628;28;20273;-69
2023/03/15 05:08:55;;;;;;;11.23;4.03;;;;;;;4.98;55.32;96131.78;5027162;28;20175;-69
2023/03/15 05:11:21;;;;;;;8.67;4.23;;;;;;;4.97;55.22;96134.44;5027347;28;20264;-68
2023/03/15 05:13:46;;;;;;;8.47;3.00;;;;;;;4.88;55.26;96141.56;5027169;28;20211;-69
2023/03/15 05:16:11;;;;;;;6.03;3.63;;;;;;;5.02;55.45;96136.00;5028267;28;20176;-69
2023/03/15 05:18:37;;;;;;;9.87;3.67;;;;;;;4.96;55.54;96133.59;5028000;28;20188;-68
2023/03/15 05:21:04;;;;;;;24.90;4.47;;;;;;;5.10;55.58;96138.41;5025262;28;20207;-69
2023/03/15 05:23:32;;;;;;;21.37;4.43;;;;;;;5.05;54.95;96141.13;5028849;28;20167;-69
2023/03/15 05:25:58;;;;;;;24.23;5.63;;;;;;;5.15;54.86;96141.75;5019430;28;20935;-69
2023/03/15 05:28:24;;;;;;;9.50;3.00;;;;;;;5.14;54.52;96158.25;5023445;28;20458;-69
2023/03/15 05:30:51;;;;;;;10.80;2.90;;;;;;;5.06;54.75;96155.84;5022636;28;20222;-69
2023/03/15 05:33:18;;;;;;;6.43;4.00;;;;;;;5.13;54.72;96156.53;5024652;28;20461;-68
2023/03/15 05:35:44;;;;;;;5.50;3.10;;;;;;;5.01;55.15;96167.28;5024025;28;20484;-68
2023/03/15 05:38:13;;;;;;;12.60;3.00;;;;;;;5.02;55.34;96169.81;5024778;28;20469;-69
2023/03/15 05:40:43;;;;;;;18.13;4.23;;;;;;;5.05;55.49;96174.94;5026868;28;20187;-68
2023/03/15 05:43:09;;;;;;;7.63;3.20;;;;;;;5.07;54.92;96180.94;5027932;28;20422;-69
2023/03/15 05:45:35;;;;;;;6.67;3.33;;;;;;;5.06;54.73;96184.47;5029411;28;20574;-68
2023/03/15 05:48:01;;;;;;;9.57;3.80;;;;;;;5.02;54.68;96187.19;5033051;28;20213;-68
2023/03/15 05:50:27;;;;;;;7.80;3.57;;;;;;;4.97;55.05;96189.03;5027026;28;21245;-69
2023/03/15 05:52:53;;;;;;;7.70;3.33;;;;;;;4.81;55.63;96191.16;5026157;28;20286;-68
2023/03/15 05:55:19;;;;;;;11.43;3.50;;;;;;;4.87;55.61;96193.63;5024691;28;20462;-69
2023/03/15 05:57:45;;;;;;;6.63;3.60;;;;;;;4.80;56.43;96194.66;5024214;28;20874;-68
2023/03/15 06:00:13;;;;;;;4.70;2.80;;;;;;;4.81;56.57;96201.56;5025207;28;20210;-68
2023/03/15 06:02:42;;;;;;;5.97;3.63;;;;;;;4.79;55.70;96199.00;5019473;28;20206;-69
2023/03/15 06:05:08;;;;;;;8.53;3.83;;;;;;;4.87;56.13;96198.81;5025513;28;20465;-67
2023/03/15 06:07:34;;;;;;;8.20;3.50;;;;;;;4.84;56.01;96211.88;5025071;28;20470;-67
2023/03/15 06:09:59;;;;;;;8.67;3.83;;;;;;;4.99;55.63;96203.72;5022643;28;21149;-69
2023/03/15 06:12:25;;;;;;;8.50;3.80;;;;;;;5.03;55.58;96209.69;5024209;28;20234;-68
2023/03/15 06:14:51;;;;;;;5.80;4.00;;;;;;;5.59;54.12;96209.94;5023003;28;20587;-70
2023/03/15 06:17:16;;;;;;;10.10;5.80;;;;;;;6.53;51.26;96209.88;5024118;28;20179;-70
2023/03/15 06:19:41;;;;;;;5.30;3.57;;;;;;;7.49;48.90;96199.75;5025945;28;20187;-68
2023/03/15 06:22:07;;;;;;;16.73;4.67;;;;;;;8.51;46.21;96197.75;5022030;28;20180;-69
2023/03/15 06:24:33;;;;;;;27.47;6.87;;;;;;;9.50;43.50;96199.84;5032759;28;20679;-69
2023/03/15 06:26:59;;;;;;;14.67;5.03;;;;;;;10.20;41.62;96206.34;5024403;28;20209;-69
2023/03/15 06:29:24;;;;;;;20.87;5.90;;;;;;;10.42;40.95;96203.63;5029315;28;20206;-70
2023/03/15 06:31:50;;;;;;;22.40;7.87;;;;;;;9.69;42.31;96207.75;5024649;28;20810;-69
2023/03/15 06:34:16;;;;;;;24.50;6.80;;;;;;;8.71;45.10;96214.44;5027950;28;20199;-69
2023/03/15 06:36:41;;;;;;;9.57;4.83;;;;;;;8.98;44.57;96218.56;5025043;28;20195;-69
2023/03/15 06:39:10;;;;;;;11.03;7.43;;;;;;;10.30;41.46;96207.69;5025922;28;20182;-71
2023/03/15 06:41:35;;;;;;;12.43;4.83;;;;;;;11.30;39.47;96209.94;5025778;28;20793;-69
2023/03/15 06:44:01;;;;;;;13.33;5.10;;;;;;;12.40;36.24;96204.22;5028760;28;20576;-69
2023/03/15 06:46:26;;;;;;;23.60;5.10;;;;;;;13.08;35.27;96205.72;5024770;28;20870;-70
2023/03/15 06:48:51;;;;;;;29.60;6.13;;;;;;;13.28;33.82;96209.91;5025047;28;20222;-70
2023/03/15 06:51:17;;;;;;;32.63;6.43;;;;;;;13.67;33.40;96198.78;5027552;28;20184;-69
2023/03/15 06:53:42;;;;;;;21.23;5.10;;;;;;;14.16;32.33;96211.66;5025960;28;20252;-68
2023/03/15 06:56:22;;;;;;;24.90;6.67;;;;;;;14.52;31.67;96209.47;5025304;28;20229;-70
2023/03/15 06:58:50;;;;;;;8.00;3.93;;;;;;;14.51;30.63;96213.09;5010556;28;20179;-69
2023/03/15 07:01:16;;;;;;;6.93;3.50;;;;;;;14.84;30.51;96207.50;5027168;28;20418;-69
2023/03/15 07:03:42;;;;;;;26.53;5.73;;;;;;;14.90;30.49;96212.38;5026582;28;20468;-70
2023/03/15 07:06:07;;;;;;;19.17;4.07;;;;;;;14.91;29.93;96214.06;5025011;28;20614;-70
2023/03/15 07:08:33;;;;;;;11.90;3.53;;;;;;;15.17;29.56;96219.47;5027005;28;20906;-68
2023/03/15 07:10:59;;;;;;;29.33;4.97;;;;;;;15.43;29.40;96213.31;5026726;28;20185;-69
2023/03/15 07:13:24;;;;;;;12.73;4.03;;;;;;;14.98;29.74;96225.94;5026914;28;20215;-68
2023/03/15 07:15:53;;;;;;;8.90;3.10;;;;;;;15.54;28.71;96222.31;5026549;28;20621;-70
2023/03/15 07:18:19;;;;;;;9.73;3.83;;;;;;;15.45;28.38;96221.16;5026054;28;20199;-70
2023/03/15 07:20:45;;;;;;;11.60;3.90;;;;;;;15.06;29.55;96220.16;5026811;28;20431;-69
2023/03/15 07:23:10;;;;;;;11.30;4.03;;;;;;;14.92;29.58;96220.19;5027071;28;20199;-70
2023/03/15 07:25:35;;;;;;;9.17;3.50;;;;;;;14.57;30.38;96218.88;5027066;28;20191;-68
2023/03/15 07:28:01;;;;;;;10.87;3.63;;;;;;;14.33;30.57;96221.19;5028221;28;20254;-70
2023/03/15 07:30:27;;;;;;;11.23;3.70;;;;;;;14.14;31.36;96224.09;5028689;28;20179;-70
2023/03/15 07:32:52;;;;;;;8.17;3.57;;;;;;;14.25;31.49;96219.97;5028848;28;20587;-68
2023/03/15 07:35:18;;;;;;;7.70;3.40;;;;;;;13.98;31.21;96229.47;5027317;28;20203;-69
2023/03/15 07:37:44;;;;;;;10.50;4.33;;;;;;;13.58;32.37;96225.69;5026849;28;20198;-68
2023/03/15 07:40:11;;;;;;;11.40;3.20;;;;;;;13.74;31.91;96226.50;5032410;28;20198;-70
2023/03/15 07:42:37;;;;;;;6.53;3.63;;;;;;;13.91;31.20;96224.66;5027691;28;20449;-69
2023/03/15 07:45:07;;;;;;;18.03;4.00;;;;;;;13.83;31.00;96232.19;5027885;28;21026;-68
2023/03/15 07:47:33;;;;;;;9.40;3.20;;;;;;;13.58;31.25;96228.34;5026400;28;20423;-68
2023/03/15 07:49:58;;;;;;;8.00;2.97;;;;;;;12.83;32.46;96230.81;5026114;28;20560;-68
2023/03/15 07:52:24;;;;;;;10.13;3.40;;;;;;;12.24;33.82;96229.66;5027962;28;20207;-69
2023/03/15 07:54:50;;;;;;;15.40;3.87;;;;;;;13.15;32.25;96225.50;5028310;28;20246;-70
2023/03/15 07:57:16;;;;;;;9.80;2.60;;;;;;;13.03;31.96;96224.44;5026653;28;20985;-68
2023/03/15 07:59:41;;;;;;;6.80;2.80;;;;;;;13.24;31.56;96225.00;5028557;28;20199;-70
2023/03/15 08:02:13;;;;;;;8.20;4.23;;;;;;;13.26;31.36;96222.28;5028603;28;20241;-70
2023/03/15 08:04:38;;;;;;;7.90;3.40;;;;;;;13.51;31.20;96232.25;5026775;28;20199;-68
2023/03/15 08:07:04;;;;;;;22.27;6.73;;;;;;;13.64;31.26;96235.91;5028357;28;20410;-68
2023/03/15 08:09:31;;;;;;;15.03;3.73;;;;;;;13.87;29.79;96226.63;5027969;28;21059;-70
2023/03/15 08:11:57;;;;;;;8.90;3.67;;;;;;;13.36;31.50;96236.66;5028114;28;20500;-69
2023/03/15 08:14:23;;;;;;;5.83;3.37;;;;;;;13.32;31.90;96241.25;5028152;28;20813;-69
2023/03/15 08:16:49;;;;;;;9.33;4.00;;;;;;;13.41;31.24;96239.88;5021660;28;20182;-70
2023/03/15 08:19:15;;;;;;;7.50;3.77;;;;;;;13.73;30.65;96234.50;5030135;28;20248;-70
2023/03/15 08:21:44;;;;;;;10.23;3.43;;;;;;;14.14;29.71;96225.91;5010928;28;20945;-70
2023/03/15 08:24:10;;;;;;;6.73;2.93;;;;;;;14.08;29.67;96231.53;5008508;28;20227;-69
2023/03/15 08:26:35;;;;;;;6.53;4.17;;;;;;;14.47;29.80;96225.59;5008349;28;20532;-69
2023/03/15 08:29:01;;;;;;;6.53;3.67;;;;;;;14.50;29.65;96219.28;5008268;28;20415;-69
2023/03/15 08:31:26;;;;;;;10.60;5.40;;;;;;;14.61;29.80;96227.44;5008510;28;20184;-69
2023/03/15 08:33:52;;;;;;;5.20;3.33;;;;;;;15.00;28.84;96229.34;5025759;28;20199;-69
2023/03/15 08:36:18;;;;;;;12.43;3.60;;;;;;;15.03;28.73;96231.78;5028045;28;20178;-69
2023/03/15 08:38:43;;;;;;;11.10;4.00;;;;;;;14.76;28.35;96233.53;5027524;28;20317;-69
2023/03/15 08:41:09;;;;;;;10.63;4.10;;;;;;;14.65;28.19;96233.38;5028301;28;20422;-69
2023/03/15 08:43:34;;;;;;;19.47;4.77;;;;;;;14.71;28.35;96233.81;5028891;28;20176;-69
2023/03/15 08:45:59;;;;;;;14.50;3.40;;;;;;;14.50;27.78;96235.13;5028236;28;20202;-70
2023/03/15 08:48:26;;;;;;;6.37;4.53;;;;;;;14.47;28.07;96232.69;5028506;28;20175;-69
2023/03/15 08:50:51;;;;;;;9.13;3.77;;;;;;;14.70;28.20;96241.84;5028493;28;20632;-69
2023/03/15 08:53:16;;;;;;;9.60;3.43;;;;;;;14.33;27.84;96255.50;5027844;28;20520;-69
2023/03/15 08:55:42;;;;;;;6.60;3.83;;;;;;;14.26;28.67;96248.06;5027476;28;20275;-69
2023/03/15 08:58:07;;;;;;;6.90;3.30;;;;;;;14.48;28.37;96242.28;5027441;28;20201;-69
2023/03/15 09:00:33;;;;;;;12.43;4.17;;;;;;;14.19;28.57;96250.22;5027347;28;20201;-68
2023/03/15 09:02:58;;;;;;;7.53;3.00;;;;;;;13.73;30.04;96247.69;5027172;28;20212;-68
2023/03/15 09:05:24;;;;;;;5.17;2.90;;;;;;;13.83;29.65;96254.13;5027137;28;20194;-70
2023/03/15 09:07:51;;;;;;;16.93;4.50;;;;;;;14.06;28.73;96258.03;5027053;28;21000;-69
2023/03/15 09:10:18;;;;;;;11.80;3.00;;;;;;;14.57;28.00;96254.97;5022107;28;20454;-69
2023/03/15 09:12:46;;;;;;;12.20;3.87;;;;;;;14.53;27.84;96256.94;5020621;28;20620;-69
2023/03/15 09:15:12;;;;;;;10.33;3.60;;;;;;;14.58;28.07;96252.25;5024074;28;20508;-70
2023/03/15 09:17:38;;;;;;;7.47;2.70;;;;;;;14.70;28.24;96255.06;5029660;28;20670;-70
2023/03/15 09:20:13;;;;;;;9.60;2.90;;;;;;;14.44;27.94;96254.84;5024991;28;20183;-69
2023/03/15 09:22:38;;;;;;;10.53;3.00;;;;;;;14.58;27.81;96249.59;5022033;28;20529;-69
2023/03/15 09:25:04;;;;;;;6.63;3.20;;;;;;;14.87;27.45;96254.84;5019453;28;20513;-70
2023/03/15 09:27:30;;;;;;;10.60;3.70;;;;;;;14.72;28.40;96264.59;5025961;28;20182;-70
2023/03/15 09:29:56;;;;;;;10.00;3.30;;;;;;;14.72;27.83;96255.81;5023559;28;20171;-70
2023/03/15 09:32:21;;;;;;;16.33;5.23;;;;;;;15.00;27.72;96250.47;5024404;28;21022;-68
2023/03/15 09:34:47;;;;;;;11.13;2.90;;;;;;;14.72;27.90;96263.75;5024005;28;20203;-70
2023/03/15 09:37:12;;;;;;;12.97;3.00;;;;;;;14.42;27.99;96254.09;5024275;28;20175;-70
2023/03/15 09:39:38;;;;;;;7.03;2.87;;;;;;;14.55;28.21;96254.22;5023798;28;20206;-68
2023/03/15 09:42:15;;;;;;;12.30;3.13;;;;;;;14.27;28.29;96260.28;5024246;28;20183;-70
2023/03/15 09:44:50;;;;;;;15.03;3.23;;;;;;;14.53;27.74;96258.72;5022320;28;20680;-70
2023/03/15 09:47:34;;;;;;;12.30;2.73;;;;;;;13.75;28.88;96257.22;5023605;28;20492;-70
2023/03/15 09:50:25;;;;;;;11.17;2.90;;;;;;;13.89;29.19;96256.41;5024413;28;20490;-70
2023/03/15 09:52:59;;;;;;;19.00;3.20;;;;;;;14.38;28.20;96260.50;5024017;28;20466;-68
2023/03/15 09:55:26;;;;;;;5.90;3.27;;;;;;;14.90;27.47;96264.38;5023970;28;20530;-70
2023/03/15 09:58:10;;;;;;;7.57;3.20;;;;;;;14.31;28.39;96261.81;5023529;28;20442;-68
2023/03/15 10:00:43;;;;;;;4.80;2.87;;;;;;;14.75;27.02;96260.91;5023919;28;20499;-67
2023/03/15 10:03:35;;;;;;;3.07;2.00;;;;;;;14.76;26.73;96252.91;5023851;28;20461;-69
2023/03/15 10:06:23;;;;;;;4.80;2.30;;;;;;;14.79;26.51;96255.34;5019386;28;20438;-71
2023/03/15 10:08:53;;;;;;;5.87;2.53;;;;;;;14.68;26.96;96260.44;5028237;28;20413;-70
2023/03/15 10:11:45;;;;;;;7.13;2.37;;;;;;;14.53;26.90;96254.28;5029925;28;21032;-69
2023/03/15 10:14:11;;;;;;;5.10;2.27;;;;;;;14.46;26.61;96247.69;5029693;28;20465;-69
2023/03/15 10:16:45;;;;;;;7.90;2.50;;;;;;;14.13;26.86;96255.88;5029758;28;20424;-71
2023/03/15 10:19:17;;;;;;;10.53;3.90;;;;;;;14.49;25.73;96250.13;5029647;28;20852;-71
2023/03/15 10:21:52;;;;;;;5.40;2.80;;;;;;;14.76;25.86;96254.66;5029905;28;20460;-69
2023/03/15 10:24:21;;;;;;;6.50;2.70;;;;;;;14.71;25.80;96259.38;5029866;28;20425;-68
2023/03/15 10:26:50;;;;;;;7.20;2.10;;;;;;;14.91;25.27;96258.16;5029641;28;20406;-71
2023/03/15 10:29:19;;;;;;;7.60;2.80;;;;;;;14.80;24.84;96261.47;5032958;28;20428;-70
2023/03/15 10:31:46;;;;;;;7.70;2.30;;;;;;;15.20;24.82;96248.34;5035129;28;20406;-70
2023/03/15 10:34:14;;;;;;;11.83;3.20;;;;;;;15.27;25.74;96256.72;5034070;28;20465;-70
2023/03/15 10:36:54;;;;;;;9.00;2.70;;;;;;;15.12;25.92;96247.97;5034555;28;20440;-69
2023/03/15 10:39:20;;;;;;;9.60;2.47;;;;;;;14.70;25.94;96263.00;5037723;28;20410;-70
2023/03/15 10:41:48;;;;;;;7.80;2.47;;;;;;;14.66;25.95;96257.03;5038065;28;20414;-70
2023/03/15 10:44:23;;;;;;;4.43;2.30;;;;;;;14.37;25.96;96250.91;5032345;28;20430;-70
2023/03/15 10:47:08;;;;;;;5.47;2.40;;;;;;;13.96;26.35;96251.59;5029730;28;20478;-69
2023/03/15 10:49:38;;;;;;;6.67;2.80;;;;;;;13.67;26.83;96254.16;5029689;28;20433;-71
2023/03/15 10:52:05;;;;;;;9.10;2.40;;;;;;;13.30;26.46;96258.09;5030298;28;20428;-69
2023/03/15 10:54:34;;;;;;;5.00;1.77;;;;;;;13.20;25.85;96257.72;5030077;28;20496;-69
2023/03/15 10:57:17;;;;;;;23.27;4.57;;;;;;;13.07;26.54;96247.03;5029959;28;20422;-69
2023/03/15 11:00:16;;;;;;;5.60;1.70;;;;;;;12.92;26.96;96245.25;5030261;28;20512;-69
2023/03/15 11:02:59;;;;;;;8.83;2.00;;;;;;;12.98;26.13;96241.44;5030468;28;20890;-69
2023/03/15 11:05:30;;;;;;;5.10;1.80;;;;;;;12.99;25.95;96245.75;5029870;28;20440;-69
2023/03/15 11:07:58;;;;;;;8.40;1.90;;;;;;;13.12;26.04;96249.41;5029759;28;20852;-70
2023/03/15 11:10:26;;;;;;;9.80;2.00;;;;;;;13.28;26.78;96245.00;5030461;28;20429;-71
2023/03/15 11:13:10;;;;;;;13.23;2.00;;;;;;;13.32;26.30;96248.28;5029920;28;20551;-71
2023/03/15 11:15:38;;;;;;;6.23;2.50;;;;;;;13.65;25.39;96232.31;5029866;28;20508;-71
2023/03/15 11:18:04;;;;;;;11.07;2.20;;;;;;;13.48;26.03;96240.38;5032417;28;20420;-69
2023/03/15 11:20:38;;;;;;;3.40;2.10;;;;;;;13.02;25.63;96237.72;5028476;28;21040;-70
2023/03/15 11:23:18;;;;;;;3.33;2.03;;;;;;;12.74;27.63;96228.69;5029191;28;20179;-71
2023/03/15 11:25:44;;;;;;;7.33;2.33;;;;;;;12.78;27.67;96230.22;5028947;28;20465;-71
2023/03/15 11:28:27;;;;;;;9.10;2.80;;;;;;;12.60;28.07;96232.09;5029095;28;20827;-70
2023/03/15 11:30:56;;;;;;;4.37;2.13;;;;;;;12.65;28.86;96234.47;5028871;28;20206;-71
2023/03/15 11:33:28;;;;;;;7.17;2.43;;;;;;;13.01;28.21;96228.09;5029090;28;21021;-69
2023/03/15 11:35:56;;;;;;;5.50;2.00;;;;;;;12.91;27.35;96212.78;5028726;28;20829;-69
2023/03/15 11:38:42;;;;;;;4.67;2.20;;;;;;;12.77;27.67;96218.00;5029169;28;20587;-69
2023/03/15 11:41:15;;;;;;;3.03;2.00;;;;;;;13.06;28.03;96211.09;5028921;28;20410;-70
2023/03/15 11:44:11;;;;;;;3.03;2.23;;;;;;;12.74;27.68;96210.25;5027717;28;20434;-71